This is the latest recevied weather packets stored in our database for station/object SP4MAZ-13. If no packets are shown the sender has not sent any weather packets the latest 1 day(s).
| Time | Temp. | Humidity | Pressure | Rain* | Wind** | Luminosity | Snow |
|---|---|---|---|---|---|---|---|
| 1778059541 | 14.44° C | 75% | 2147.4 hPa | - | - | - | - |
| 1778058331 | 13.89° C | 79% | 2147.4 hPa | - | - | - | - |
| 1778058028 | 15° C | 71% | 2147.4 hPa | - | - | - | - |
| 1778057120 | 14.44° C | 73% | 2147.4 hPa | - | - | - | - |
| 1778056819 | 15° C | 69% | 2147.4 hPa | - | - | - | - |
| 1778056516 | 15.56° C | 68% | 2147.4 hPa | - | - | - | - |
| 1778056212 | 15° C | 70% | 2147.4 hPa | - | - | - | - |
| 1778055909 | 15.56° C | 68% | 2147.4 hPa | - | - | - | - |
| 1778055606 | 14.44° C | 73% | 2147.4 hPa | - | - | - | - |
| 1778054697 | 13.33° C | 82% | 2147.4 hPa | - | - | - | - |
| 1778053784 | 13.89° C | 74% | 2147.4 hPa | - | - | - | - |
| 1778053179 | 13.89° C | 75% | 2147.4 hPa | - | - | - | - |
| 1778052875 | 13.89° C | 73% | 2147.4 hPa | - | - | - | - |
| 1778052573 | 13.89° C | 73% | 2147.4 hPa | - | - | - | - |
| 1778051968 | 13.89° C | 73% | 2147.4 hPa | - | - | - | - |
| 1778051666 | 14.44° C | 71% | 2147.4 hPa | - | - | - | - |
| 1778051059 | 13.33° C | 78% | 2147.4 hPa | - | - | - | - |
| 1778050452 | 13.33° C | 72% | 2147.4 hPa | - | - | - | - |
| 1778050149 | 13.33° C | 72% | 2147.4 hPa | - | - | - | - |
| 1778049845 | 13.33° C | 73% | 2147.4 hPa | - | - | - | - |
| 1778048938 | 13.89° C | 68% | 2147.4 hPa | - | - | - | - |
| 1778047720 | 12.22° C | 80% | 2147.4 hPa | - | - | - | - |
| 1778046510 | 12.22° C | 79% | 2147.4 hPa | - | - | - | - |
| 1778046208 | 12.22° C | 81% | 2147.4 hPa | - | - | - | - |
| 1778045601 | 11.67° C | 90% | 2147.4 hPa | - | - | - | - |
* Rain since midnight (hover to see other rain measurements)
** Current wind speed in m/s (hover to see current wind gust speed)